Time;durP1;ratioP1;P1;durP2;ratioP2;P2;SDS_P1;SDS_P2;PMS_P1;PMS_P2;Temp;Humidity;BMP_temperature;BMP_pressure;BME280_temperature;BME280_humidity;BME280_pressure;Samples;Min_cycle;Max_cycle;Signal;HPM_P1;HPM_P2
2021/03/14 00:00:46;;;;;;;2.37;1.27;;;;;;;9.85;58.61;98427.06;1723824;81;21641;-69
2021/03/14 00:03:16;;;;;;;2.65;1.20;;;;;;;9.62;59.37;98429.95;1729547;81;21229;-68
2021/03/14 00:05:43;;;;;;;4.83;1.40;;;;;;;9.59;59.70;98426.90;1730677;81;21216;-69
2021/03/14 00:08:09;;;;;;;2.80;1.40;;;;;;;9.48;60.29;98426.41;1729940;81;21225;-68
2021/03/14 00:10:35;;;;;;;3.37;1.45;;;;;;;9.30;60.98;98430.81;1728021;81;22228;-69
2021/03/14 00:13:01;;;;;;;2.95;1.50;;;;;;;9.51;60.56;98444.98;1724460;81;28112;-69
2021/03/14 00:15:27;;;;;;;3.92;1.40;;;;;;;9.23;61.79;98453.67;1733043;81;21227;-69
2021/03/14 00:17:52;;;;;;;2.50;1.32;;;;;;;9.13;62.32;98451.84;1727047;81;28412;-68
2021/03/14 00:20:18;;;;;;;2.65;1.40;;;;;;;9.14;62.46;98460.07;1734329;81;20966;-69
2021/03/14 00:22:45;;;;;;;2.90;1.55;;;;;;;9.18;62.44;98459.98;1725899;81;22058;-69
2021/03/14 00:25:12;;;;;;;4.90;1.70;;;;;;;9.19;62.78;98459.50;1723215;81;21184;-69
2021/03/14 00:27:38;;;;;;;3.52;1.57;;;;;;;8.96;63.53;98474.50;1727383;81;21643;-70
2021/03/14 00:30:05;;;;;;;3.20;1.55;;;;;;;8.96;63.94;98462.64;1728575;81;28371;-69
2021/03/14 00:32:31;;;;;;;2.90;1.52;;;;;;;8.82;64.55;98462.17;1733244;81;21637;-69
2021/03/14 00:34:57;;;;;;;3.40;1.72;;;;;;;8.96;64.14;98461.33;1728343;81;21620;-69
2021/03/14 00:37:22;;;;;;;3.83;1.60;;;;;;;8.85;64.63;98453.91;1729973;81;26871;-68
2021/03/14 00:39:48;;;;;;;3.33;1.50;;;;;;;8.96;64.24;98452.59;1728318;81;25370;-68
2021/03/14 00:42:14;;;;;;;3.80;1.90;;;;;;;8.91;64.41;98463.69;1724612;81;28488;-69
2021/03/14 00:44:40;;;;;;;5.30;1.95;;;;;;;8.96;64.33;98461.81;1724584;81;26773;-69
2021/03/14 00:47:05;;;;;;;4.05;2.10;;;;;;;8.93;64.56;98461.70;1728528;81;21183;-69
2021/03/14 00:49:31;;;;;;;2.80;1.57;;;;;;;8.87;64.82;98465.56;1731392;81;27355;-68
2021/03/14 00:51:57;;;;;;;3.70;1.75;;;;;;;8.73;65.23;98462.81;1722682;82;25361;-68
2021/03/14 00:54:22;;;;;;;7.55;1.90;;;;;;;8.84;64.93;98462.83;1720837;82;28353;-68
2021/03/14 00:56:48;;;;;;;3.33;1.52;;;;;;;8.71;65.36;98460.84;1735838;82;26780;-69
2021/03/14 00:59:14;;;;;;;4.72;2.00;;;;;;;9.10;64.41;98466.70;1728239;82;21257;-68
2021/03/14 01:01:40;;;;;;;4.60;1.65;;;;;;;8.79;65.25;98465.17;1734109;82;27875;-69
2021/03/14 01:04:05;;;;;;;4.42;2.30;;;;;;;8.81;65.05;98468.46;1740346;82;25284;-67
2021/03/14 01:06:31;;;;;;;4.72;1.87;;;;;;;8.74;65.41;98467.56;1734471;81;28466;-68
2021/03/14 01:08:57;;;;;;;3.70;1.82;;;;;;;8.74;65.34;98470.19;1737913;82;26769;-68
2021/03/14 01:11:23;;;;;;;3.20;1.80;;;;;;;8.59;65.92;98476.31;1734896;82;21139;-69
2021/03/14 01:13:48;;;;;;;4.00;2.05;;;;;;;8.46;66.74;98471.39;1731974;82;27411;-69
2021/03/14 01:16:14;;;;;;;4.97;1.95;;;;;;;8.62;66.32;98475.11;1730555;81;25978;-67
2021/03/14 01:18:40;;;;;;;3.37;1.67;;;;;;;8.58;66.46;98464.15;1730010;82;28757;-68
2021/03/14 01:21:06;;;;;;;4.05;1.98;;;;;;;8.58;66.55;98465.47;1727191;82;26814;-69
2021/03/14 01:23:31;;;;;;;3.87;1.80;;;;;;;8.56;66.82;98467.48;1714754;82;21773;-68
2021/03/14 01:25:57;;;;;;;6.03;2.00;;;;;;;8.44;67.43;98470.27;1733746;82;26782;-68
2021/03/14 01:28:23;;;;;;;5.75;1.92;;;;;;;8.47;67.40;98460.69;1732507;82;25234;-68
2021/03/14 01:30:49;;;;;;;5.55;2.17;;;;;;;8.51;67.30;98459.30;1730570;82;28398;-68
2021/03/14 01:33:15;;;;;;;4.47;1.98;;;;;;;8.34;67.99;98459.17;1732195;82;21191;-69
2021/03/14 01:35:41;;;;;;;4.67;2.35;;;;;;;8.42;67.87;98459.06;1731622;82;22034;-69
2021/03/14 01:38:06;;;;;;;5.60;2.40;;;;;;;8.34;68.00;98465.75;1729163;82;26855;-70
2021/03/14 01:40:32;;;;;;;4.80;2.33;;;;;;;8.34;68.26;98456.54;1733767;81;25461;-70
2021/03/14 01:42:58;;;;;;;5.87;2.30;;;;;;;8.50;67.58;98465.58;1741570;82;28382;-69
2021/03/14 01:45:24;;;;;;;5.45;2.67;;;;;;;8.43;67.95;98460.70;1735929;81;27272;-69
2021/03/14 01:47:52;;;;;;;5.50;2.50;;;;;;;8.44;67.80;98455.28;1730958;82;22462;-69
2021/03/14 01:50:22;;;;;;;4.47;2.33;;;;;;;8.40;68.02;98460.56;1725407;82;21205;-69
2021/03/14 01:52:49;;;;;;;7.03;2.70;;;;;;;8.43;68.03;98450.17;1729780;82;21272;-69
2021/03/14 01:55:15;;;;;;;5.85;2.33;;;;;;;8.33;68.40;98449.64;1733842;81;21266;-69
2021/03/14 01:57:41;;;;;;;4.90;2.67;;;;;;;8.25;68.74;98438.24;1725012;82;21681;-69
2021/03/14 02:00:09;;;;;;;4.28;2.25;;;;;;;8.30;68.71;98439.48;1737022;82;22050;-68
2021/03/14 02:02:35;;;;;;;5.47;2.40;;;;;;;8.11;69.23;98428.56;1730325;82;21213;-69
2021/03/14 02:05:04;;;;;;;6.65;2.67;;;;;;;8.19;68.93;98427.14;1730625;82;21498;-68
2021/03/14 02:07:30;;;;;;;7.25;2.75;;;;;;;8.26;68.58;98435.94;1730457;82;21790;-69
2021/03/14 02:09:56;;;;;;;5.28;2.35;;;;;;;8.39;68.41;98435.27;1726423;82;26817;-70
2021/03/14 02:12:22;;;;;;;5.83;2.40;;;;;;;8.43;68.19;98431.77;1732828;82;21265;-68
2021/03/14 02:14:48;;;;;;;5.72;2.60;;;;;;;8.31;68.31;98434.05;1725321;81;26696;-68
2021/03/14 02:17:17;;;;;;;4.90;2.35;;;;;;;8.05;69.10;98431.92;1733772;81;21172;-68
2021/03/14 02:19:57;;;;;;;5.00;2.37;;;;;;;8.16;68.77;98434.08;1728712;82;21721;-68
2021/03/14 02:22:22;;;;;;;4.72;2.40;;;;;;;8.18;68.69;98441.78;1727969;82;21257;-68
2021/03/14 02:24:55;;;;;;;5.45;2.40;;;;;;;8.16;68.65;98447.23;1737774;81;21865;-68
2021/03/14 02:27:21;;;;;;;5.10;2.42;;;;;;;8.12;68.63;98445.14;1727167;82;21232;-67
2021/03/14 02:29:47;;;;;;;4.62;2.20;;;;;;;8.18;68.45;98441.78;1734307;82;25306;-68
2021/03/14 02:32:12;;;;;;;6.60;2.80;;;;;;;8.14;68.48;98442.66;1728524;81;28337;-67
2021/03/14 02:34:50;;;;;;;5.67;2.20;;;;;;;8.06;68.72;98436.16;1729583;82;26788;-67
2021/03/14 02:37:15;;;;;;;4.83;2.60;;;;;;;7.91;69.07;98436.98;1735377;82;21259;-67
2021/03/14 02:39:43;;;;;;;4.75;2.10;;;;;;;7.89;68.90;98438.99;1724633;82;27973;-67
2021/03/14 02:42:10;;;;;;;6.45;2.40;;;;;;;7.87;68.97;98440.97;1735214;82;21243;-68
2021/03/14 02:44:40;;;;;;;5.95;2.52;;;;;;;7.84;69.08;98450.52;1734753;81;21223;-68
2021/03/14 02:47:06;;;;;;;7.37;2.50;;;;;;;7.88;68.95;98453.63;1739551;81;21204;-68
2021/03/14 02:49:34;;;;;;;4.75;2.33;;;;;;;7.93;68.67;98459.15;1731819;81;21240;-68
2021/03/14 02:52:04;;;;;;;4.60;2.30;;;;;;;7.91;68.77;98461.95;1732136;81;21256;-68
2021/03/14 02:54:32;;;;;;;5.12;2.52;;;;;;;8.00;68.47;98455.29;1726364;81;21225;-68
2021/03/14 02:56:57;;;;;;;5.42;2.55;;;;;;;7.82;69.09;98449.90;1723912;81;21758;-68
2021/03/14 02:59:23;;;;;;;6.40;2.67;;;;;;;7.66;69.62;98450.05;1735236;81;27964;-68
2021/03/14 03:01:50;;;;;;;6.65;3.25;;;;;;;7.75;69.37;98443.72;1730051;81;22649;-68
2021/03/14 03:04:19;;;;;;;6.50;2.67;;;;;;;7.75;69.36;98438.47;1736179;81;21214;-68
2021/03/14 03:06:45;;;;;;;5.35;2.45;;;;;;;7.65;69.59;98445.81;1726809;81;21616;-68
2021/03/14 03:09:11;;;;;;;4.40;2.47;;;;;;;7.66;69.49;98446.11;1731776;81;21223;-68
2021/03/14 03:11:38;;;;;;;6.35;2.70;;;;;;;7.70;69.49;98450.02;1729898;81;21208;-68
2021/03/14 03:14:04;;;;;;;8.45;3.30;;;;;;;7.84;68.83;98446.58;1727464;81;22084;-68
2021/03/14 03:16:30;;;;;;;5.97;2.65;;;;;;;7.75;69.21;98458.68;1732294;81;21253;-68
2021/03/14 03:18:56;;;;;;;5.87;2.83;;;;;;;7.78;69.06;98467.01;1728429;81;25345;-69
2021/03/14 03:21:22;;;;;;;5.37;2.83;;;;;;;7.79;69.23;98467.34;1727463;81;28457;-68
2021/03/14 03:23:48;;;;;;;7.58;3.05;;;;;;;7.86;69.09;98472.20;1726228;81;27256;-69
2021/03/14 03:26:14;;;;;;;6.33;2.65;;;;;;;7.90;69.04;98462.95;1732413;81;22062;-68
2021/03/14 03:28:40;;;;;;;5.08;2.60;;;;;;;7.87;69.13;98461.98;1728399;81;21184;-68
2021/03/14 03:31:06;;;;;;;6.33;2.47;;;;;;;7.79;69.50;98471.28;1730784;81;25642;-68
2021/03/14 03:33:32;;;;;;;5.90;2.72;;;;;;;7.96;69.02;98469.81;1731442;81;28421;-68
2021/03/14 03:35:58;;;;;;;6.90;2.65;;;;;;;8.02;68.89;98479.60;1731252;81;27272;-69
2021/03/14 03:38:24;;;;;;;5.08;2.58;;;;;;;7.96;68.89;98482.95;1724460;81;22573;-69
2021/03/14 03:40:50;;;;;;;5.30;2.55;;;;;;;7.70;69.72;98486.80;1727140;81;26824;-69
2021/03/14 03:43:26;;;;;;;4.83;2.30;;;;;;;7.54;70.37;98485.15;1731182;81;25336;-69
2021/03/14 03:45:58;;;;;;;7.10;2.90;;;;;;;7.64;70.08;98490.14;1731816;81;21197;-69
2021/03/14 03:48:39;;;;;;;5.85;2.65;;;;;;;7.46;70.62;98491.29;1726743;81;21216;-68
2021/03/14 03:51:04;;;;;;;6.42;2.85;;;;;;;7.54;70.42;98503.03;1729362;81;21197;-69
2021/03/14 03:53:32;;;;;;;5.12;2.40;;;;;;;7.72;70.04;98497.94;1730237;81;26759;-69
2021/03/14 03:55:58;;;;;;;;;;;;;;;7.37;70.78;98499.72;1733471;81;21218;-69
2021/03/14 03:58:24;;;;;;;7.42;2.70;;;;;;;7.34;71.18;98509.26;1725290;81;20191;-69
2021/03/14 04:00:50;;;;;;;4.87;2.60;;;;;;;7.42;70.80;98501.81;1725282;81;21240;-69
2021/03/14 04:03:16;;;;;;;4.60;2.47;;;;;;;7.26;71.47;98500.65;1726127;81;21095;-69
2021/03/14 04:05:42;;;;;;;6.58;3.00;;;;;;;7.24;71.56;98507.86;1728162;81;26925;-68
2021/03/14 04:08:09;;;;;;;6.78;2.83;;;;;;;7.21;71.59;98499.02;1728060;81;21205;-68
2021/03/14 04:10:35;;;;;;;6.97;2.87;;;;;;;7.31;71.15;98503.05;1712973;81;21162;-69
2021/03/14 04:13:00;;;;;;;5.87;2.67;;;;;;;7.28;71.26;98498.66;1732669;81;27386;-69
2021/03/14 04:15:29;;;;;;;5.62;2.50;;;;;;;7.21;71.53;98492.46;1724638;81;22370;-68
2021/03/14 04:17:55;;;;;;;6.37;2.70;;;;;;;7.25;71.49;98496.38;1714267;81;21681;-68
2021/03/14 04:20:24;;;;;;;6.80;3.30;;;;;;;7.34;71.00;98497.95;1727053;81;25981;-68
2021/03/14 04:22:56;;;;;;;7.65;3.00;;;;;;;7.36;70.85;98498.58;1729755;81;21263;-69
2021/03/14 04:25:23;;;;;;;7.22;2.87;;;;;;;7.31;71.03;98502.23;1725358;81;21214;-69
2021/03/14 04:27:49;;;;;;;7.08;3.17;;;;;;;7.36;70.83;98503.36;1726746;81;21649;-69
2021/03/14 04:30:16;;;;;;;5.90;2.72;;;;;;;7.38;70.75;98503.19;1719257;81;21213;-67
2021/03/14 04:32:42;;;;;;;7.70;2.90;;;;;;;7.27;70.90;98506.20;1728395;81;21169;-69
2021/03/14 04:35:08;;;;;;;5.87;2.70;;;;;;;7.29;70.85;98500.30;1731139;81;28414;-69
2021/03/14 04:37:34;;;;;;;6.13;2.70;;;;;;;7.34;70.58;98501.38;1728213;81;21197;-69
2021/03/14 04:40:00;;;;;;;7.67;2.98;;;;;;;7.29;70.68;98504.23;1723631;81;21261;-68
2021/03/14 04:42:27;;;;;;;9.63;3.00;;;;;;;7.47;70.18;98507.85;1733469;81;26848;-69
2021/03/14 04:44:53;;;;;;;6.80;2.90;;;;;;;7.59;69.89;98510.89;1725759;81;21181;-69
2021/03/14 04:47:18;;;;;;;7.42;2.87;;;;;;;7.63;69.57;98513.45;1716097;81;28337;-69
2021/03/14 04:49:44;;;;;;;7.22;2.65;;;;;;;7.65;69.37;98510.18;1730777;81;26800;-69
2021/03/14 04:52:10;;;;;;;6.05;2.58;;;;;;;7.71;69.16;98505.53;1719578;82;21849;-69
2021/03/14 04:54:36;;;;;;;6.05;2.55;;;;;;;7.81;68.75;98507.89;1708488;82;27164;-68
2021/03/14 04:57:02;;;;;;;5.70;2.60;;;;;;;7.80;68.68;98503.14;1717784;82;21684;-68
2021/03/14 04:59:28;;;;;;;4.78;2.45;;;;;;;7.76;68.53;98509.73;1718798;82;28385;-69
2021/03/14 05:01:54;;;;;;;6.28;2.60;;;;;;;7.83;68.23;98510.67;1721207;82;26842;-68
2021/03/14 05:04:20;;;;;;;6.83;2.58;;;;;;;7.76;68.38;98501.86;1717043;82;22416;-68
2021/03/14 05:06:46;;;;;;;5.12;2.52;;;;;;;7.80;68.09;98509.71;1721846;82;21205;-70
2021/03/14 05:09:16;;;;;;;5.70;2.60;;;;;;;7.65;68.43;98495.73;1718298;82;25398;-68
2021/03/14 05:11:45;;;;;;;5.72;2.67;;;;;;;7.61;68.55;98491.81;1720348;82;21670;-68
2021/03/14 05:14:11;;;;;;;6.15;2.70;;;;;;;7.47;68.77;98488.99;1721464;82;21226;-68
2021/03/14 05:16:38;;;;;;;6.30;2.85;;;;;;;7.38;69.35;98495.30;1717720;82;21249;-69
2021/03/14 05:19:04;;;;;;;6.25;2.80;;;;;;;7.31;69.64;98491.73;1723863;82;21264;-68
2021/03/14 05:21:31;;;;;;;6.55;2.75;;;;;;;7.21;69.83;98492.46;1718573;82;21658;-69
2021/03/14 05:23:57;;;;;;;4.62;2.33;;;;;;;7.26;69.78;98505.90;1722107;82;21178;-68
2021/03/14 05:26:23;;;;;;;5.53;2.67;;;;;;;7.28;69.76;98500.77;1720628;82;22664;-69
2021/03/14 05:28:49;;;;;;;5.80;2.80;;;;;;;7.34;69.58;98508.45;1719453;82;21973;-69
2021/03/14 05:31:37;;;;;;;5.33;2.62;;;;;;;7.43;69.27;98508.71;1723296;82;26831;-69
2021/03/14 05:34:06;;;;;;;5.17;2.67;;;;;;;7.22;69.97;98510.66;1718133;82;21233;-69
2021/03/14 05:36:32;;;;;;;7.20;3.10;;;;;;;7.25;69.88;98504.25;1721981;82;22035;-68
2021/03/14 05:38:59;;;;;;;6.45;2.80;;;;;;;7.07;70.63;98510.62;1721426;82;21200;-69
2021/03/14 05:41:25;;;;;;;5.85;2.77;;;;;;;7.15;70.36;98509.75;1721875;82;21766;-68
2021/03/14 05:43:51;;;;;;;5.55;2.77;;;;;;;7.05;70.79;98517.83;1705836;82;21263;-69
2021/03/14 05:46:17;;;;;;;5.72;2.83;;;;;;;7.05;70.83;98500.77;1719578;82;25248;-67
2021/03/14 05:48:44;;;;;;;5.85;2.98;;;;;;;6.96;71.11;98508.37;1718781;82;28369;-69
2021/03/14 05:51:10;;;;;;;6.83;3.10;;;;;;;6.83;71.69;98516.31;1724229;82;21188;-68
2021/03/14 05:53:40;;;;;;;6.25;2.80;;;;;;;6.91;71.47;98516.76;1723006;82;21919;-68
2021/03/14 05:56:07;;;;;;;6.45;3.17;;;;;;;7.01;71.19;98517.88;1719722;82;21208;-68
2021/03/14 05:58:35;;;;;;;6.65;3.20;;;;;;;6.95;71.43;98517.25;1704690;82;21231;-69
2021/03/14 06:01:02;;;;;;;8.93;3.10;;;;;;;7.00;71.30;98513.09;1705495;82;21204;-68
2021/03/14 06:03:28;;;;;;;7.75;3.50;;;;;;;6.92;71.70;98522.84;1721100;82;21236;-68
2021/03/14 06:05:54;;;;;;;5.28;2.95;;;;;;;6.85;72.15;98523.20;1719816;82;21336;-68
2021/03/14 06:08:19;;;;;;;7.10;3.33;;;;;;;6.85;72.15;98523.20;1717523;81;25681;-68
2021/03/14 06:10:45;;;;;;;6.77;3.30;;;;;;;6.79;72.41;98519.45;1719709;82;23816;-68
2021/03/14 06:13:11;;;;;;;7.25;3.15;;;;;;;6.82;72.39;98509.92;1720347;82;28364;-68
2021/03/14 06:15:37;;;;;;;7.33;2.98;;;;;;;6.86;71.92;98493.36;1719624;81;26757;-68
2021/03/14 06:18:02;;;;;;;6.58;3.12;;;;;;;6.92;71.98;98514.97;1719175;82;21923;-69
2021/03/14 06:20:44;;;;;;;6.30;3.00;;;;;;;6.91;71.71;98509.39;1718999;82;26644;-68
2021/03/14 06:23:13;;;;;;;9.00;3.12;;;;;;;6.99;71.73;98501.46;1723541;82;21157;-68
2021/03/14 06:25:45;;;;;;;5.87;2.85;;;;;;;6.80;71.79;98503.53;1725488;82;21284;-69
2021/03/14 06:28:12;;;;;;;5.72;2.98;;;;;;;6.63;72.56;98503.30;1719525;82;21206;-69
2021/03/14 06:30:39;;;;;;;6.58;3.12;;;;;;;6.91;71.80;98509.39;1726887;82;21399;-69
2021/03/14 06:33:12;;;;;;;6.33;2.80;;;;;;;6.81;71.57;98480.25;1717434;82;21184;-69
2021/03/14 06:35:46;;;;;;;8.33;3.15;;;;;;;7.03;71.17;98504.07;1720945;82;21222;-69
2021/03/14 06:38:34;;;;;;;7.47;3.45;;;;;;;7.12;70.93;98512.22;1719009;82;21196;-69
2021/03/14 06:41:08;;;;;;;7.58;2.98;;;;;;;7.17;70.77;98504.63;1726286;82;21238;-69
2021/03/14 06:43:41;;;;;;;6.75;3.00;;;;;;;7.38;70.12;98509.75;1728128;82;21204;-68
2021/03/14 06:46:29;;;;;;;7.28;3.33;;;;;;;7.34;69.96;98508.45;1717742;82;21248;-68
2021/03/14 06:49:14;;;;;;;5.95;2.67;;;;;;;7.41;69.68;98516.44;1721271;82;21633;-69
2021/03/14 06:51:46;;;;;;;6.37;3.08;;;;;;;7.41;69.13;98521.21;1719449;81;21227;-68
2021/03/14 06:54:32;;;;;;;7.45;3.40;;;;;;;7.59;68.96;98522.70;1717160;82;21232;-68
2021/03/14 06:57:15;;;;;;;7.17;3.05;;;;;;;7.54;68.77;98527.98;1722306;82;21989;-68
2021/03/14 07:00:00;;;;;;;7.67;3.22;;;;;;;7.61;68.50;98533.34;1718195;82;21418;-68
2021/03/14 07:02:30;;;;;;;9.35;3.60;;;;;;;7.73;68.13;98539.00;1723396;82;21196;-66
2021/03/14 07:04:59;;;;;;;7.25;3.27;;;;;;;7.72;67.98;98537.36;1728383;82;21196;-67
2021/03/14 07:07:32;;;;;;;8.53;3.30;;;;;;;7.86;67.57;98533.12;1718259;82;21205;-67
2021/03/14 07:10:13;;;;;;;6.37;3.05;;;;;;;7.89;67.37;98537.55;1720739;82;21926;-67
2021/03/14 07:12:42;;;;;;;7.42;3.00;;;;;;;7.84;67.02;98526.73;1724881;82;21233;-67
2021/03/14 07:15:16;;;;;;;8.05;2.90;;;;;;;7.96;66.83;98532.89;1718508;82;21189;-67
2021/03/14 07:18:00;;;;;;;5.78;2.80;;;;;;;8.13;66.52;98526.47;1721830;82;21201;-67
2021/03/14 07:20:28;;;;;;;5.80;2.60;;;;;;;7.70;66.95;98528.34;1720573;82;21185;-67
2021/03/14 07:23:09;;;;;;;6.92;2.80;;;;;;;7.93;66.24;98525.37;1725009;82;21470;-68
2021/03/14 07:25:41;;;;;;;6.83;2.80;;;;;;;7.87;65.66;98510.61;1723819;82;21212;-67
2021/03/14 07:28:07;;;;;;;5.00;2.67;;;;;;;8.04;65.41;98524.92;1718941;82;21652;-67
2021/03/14 07:30:33;;;;;;;7.60;2.55;;;;;;;8.13;65.01;98540.92;1721439;82;28435;-68
2021/03/14 07:32:59;;;;;;;5.15;2.47;;;;;;;8.38;64.68;98526.20;1720488;82;26829;-68
2021/03/14 07:35:25;;;;;;;6.65;2.60;;;;;;;8.15;64.65;98540.23;1724409;82;21980;-67
2021/03/14 07:37:52;;;;;;;6.50;2.30;;;;;;;8.28;64.25;98542.23;1717869;82;26867;-67
2021/03/14 07:40:22;;;;;;;8.48;2.80;;;;;;;8.40;63.60;98543.41;1719689;82;21181;-68
2021/03/14 07:42:48;;;;;;;5.67;2.35;;;;;;;8.37;63.44;98550.86;1716682;82;21208;-68
2021/03/14 07:45:16;;;;;;;6.87;2.80;;;;;;;8.36;63.26;98536.06;1717266;82;26873;-66
2021/03/14 07:47:42;;;;;;;5.03;2.20;;;;;;;8.55;62.72;98543.45;1721933;82;21641;-67
2021/03/14 07:50:16;;;;;;;6.30;2.70;;;;;;;8.52;62.82;98537.23;1715332;82;21214;-66
2021/03/14 07:52:42;;;;;;;8.25;2.65;;;;;;;8.26;63.03;98556.91;1736843;81;21200;-66
2021/03/14 07:55:19;;;;;;;5.40;2.22;;;;;;;8.34;62.81;98539.39;1731485;81;29543;-68
2021/03/14 07:57:46;;;;;;;;;;;;;;;8.67;62.29;98541.66;1704938;81;21170;-67
2021/03/14 08:00:29;;;;;;;6.53;2.47;;;;;;;8.74;61.77;98543.88;1737704;81;21251;-67
2021/03/14 08:03:04;;;;;;;7.42;2.87;;;;;;;8.58;61.79;98535.19;1731085;81;21807;-67
2021/03/14 08:05:45;;;;;;;7.50;2.67;;;;;;;8.62;61.90;98535.15;1727486;81;21760;-67
2021/03/14 08:08:34;;;;;;;6.22;2.47;;;;;;;8.75;61.25;98542.38;1734362;81;21231;-68
2021/03/14 08:11:00;;;;;;;7.53;2.50;;;;;;;8.81;61.15;98542.16;1734669;81;21570;-67
2021/03/14 08:13:37;;;;;;;7.62;3.10;;;;;;;8.66;60.46;98541.36;1744539;81;22807;-68
2021/03/14 08:16:04;;;;;;;;;;;;;;;8.67;60.30;98522.77;1742292;81;21192;-66
2021/03/14 08:18:50;;;;;;;6.58;2.60;;;;;;;8.41;60.77;98531.91;1735495;81;20462;-67
2021/03/14 08:21:30;;;;;;;6.72;2.70;;;;;;;8.67;59.84;98545.61;1706302;81;21200;-66
2021/03/14 08:23:57;;;;;;;6.20;2.52;;;;;;;8.62;60.15;98536.47;1741604;81;21217;-68
2021/03/14 08:26:32;;;;;;;8.33;2.52;;;;;;;8.54;59.79;98528.66;1734772;81;21261;-69
2021/03/14 08:29:04;;;;;;;7.00;2.90;;;;;;;8.72;59.32;98539.31;1742071;81;21283;-69
2021/03/14 08:31:53;;;;;;;6.25;2.62;;;;;;;8.84;58.88;98523.37;1729609;81;21211;-71
2021/03/14 08:34:34;;;;;;;5.92;2.40;;;;;;;8.71;58.50;98512.67;1732583;81;21208;-71
2021/03/14 08:36:59;;;;;;;6.97;2.25;;;;;;;8.88;57.42;98519.34;1738995;81;21247;-69
2021/03/14 08:39:31;;;;;;;7.47;2.40;;;;;;;9.03;57.10;98517.19;1736248;81;22215;-70
2021/03/14 08:42:01;;;;;;;7.53;2.37;;;;;;;9.09;57.03;98516.41;1735226;81;21241;-68
2021/03/14 08:44:41;;;;;;;6.83;2.60;;;;;;;9.09;56.44;98528.27;1738769;81;22273;-69
2021/03/14 08:47:20;;;;;;;5.17;2.30;;;;;;;9.05;56.31;98525.70;1734189;81;21571;-70
2021/03/14 08:49:48;;;;;;;5.70;2.42;;;;;;;9.18;56.44;98521.87;1712651;81;21235;-70
2021/03/14 08:52:15;;;;;;;5.85;2.40;;;;;;;9.29;55.96;98553.02;1728607;81;22620;-71
2021/03/14 08:54:52;;;;;;;5.78;2.35;;;;;;;9.29;55.37;98534.57;1740427;81;21227;-68
2021/03/14 08:57:18;;;;;;;6.47;2.58;;;;;;;9.44;54.76;98558.20;1741955;81;21610;-69
2021/03/14 08:59:52;;;;;;;5.30;2.47;;;;;;;9.44;54.83;98542.91;1737920;81;21223;-70
2021/03/14 09:02:26;;;;;;;6.58;2.33;;;;;;;9.40;54.71;98558.77;1732229;81;21251;-70
2021/03/14 09:04:52;;;;;;;6.78;2.40;;;;;;;9.46;54.63;98548.80;1732890;81;21263;-70
2021/03/14 09:07:18;;;;;;;6.55;2.52;;;;;;;9.46;54.61;98551.43;1732968;81;21146;-70
2021/03/14 09:09:44;;;;;;;6.03;2.42;;;;;;;9.63;54.12;98553.31;1739963;81;25284;-70
2021/03/14 09:12:16;;;;;;;5.95;2.45;;;;;;;9.55;53.85;98562.16;1741844;81;21305;-71
2021/03/14 09:14:48;;;;;;;6.50;2.33;;;;;;;9.62;53.42;98545.11;1741097;81;21236;-71
2021/03/14 09:17:21;;;;;;;5.78;2.60;;;;;;;9.70;53.17;98559.46;1736321;81;21298;-71
2021/03/14 09:19:50;;;;;;;6.28;2.60;;;;;;;9.57;53.97;98551.42;1727591;81;21213;-72
2021/03/14 09:22:26;;;;;;;6.20;2.60;;;;;;;9.50;53.40;98556.13;1735898;81;21213;-73
2021/03/14 09:24:57;;;;;;;5.15;2.40;;;;;;;9.79;53.20;98554.85;1737112;81;21922;-71
2021/03/14 09:27:28;;;;;;;7.28;2.72;;;;;;;9.79;52.92;98594.39;1735770;81;21228;-71
2021/03/14 09:30:08;;;;;;;8.40;2.72;;;;;;;9.68;53.05;98560.97;1738556;81;21375;-72
2021/03/14 09:32:49;;;;;;;8.00;2.50;;;;;;;9.78;52.58;98587.52;1735326;81;21209;-73
2021/03/14 09:35:26;;;;;;;5.45;2.40;;;;;;;9.95;52.53;98578.32;1731223;81;21721;-71
2021/03/14 09:37:57;;;;;;;7.67;2.40;;;;;;;10.13;51.81;98583.13;1734763;81;21184;-73
2021/03/14 09:40:46;;;;;;;7.37;2.37;;;;;;;10.21;51.18;98572.94;1742379;81;21207;-72
2021/03/14 09:43:30;;;;;;;8.30;2.33;;;;;;;10.23;50.33;98574.88;1738425;81;21206;-72
2021/03/14 09:45:58;;;;;;;7.62;2.30;;;;;;;10.16;50.12;98585.88;1740523;81;21208;-73
2021/03/14 09:48:26;;;;;;;5.53;2.27;;;;;;;10.21;49.22;98585.62;1736205;81;21244;-72
2021/03/14 09:50:57;;;;;;;;;;;;;;;10.12;49.47;98588.60;1735905;81;21144;-72
2021/03/14 09:53:31;;;;;;;7.00;2.40;;;;;;;9.98;49.03;98606.95;1732047;81;20304;-72
2021/03/14 09:56:03;;;;;;;4.97;2.05;;;;;;;10.21;48.92;98598.00;1738736;81;21239;-74
2021/03/14 09:58:29;;;;;;;5.47;2.10;;;;;;;10.31;48.52;98591.86;1739768;81;21143;-71
2021/03/14 10:00:56;;;;;;;4.70;1.70;;;;;;;10.36;47.23;98571.05;1706668;82;25450;-71
2021/03/14 10:03:29;;;;;;;;;;;;;;;10.46;46.40;98592.31;1720520;82;21230;-71
2021/03/14 10:05:57;;;;;;;6.25;2.00;;;;;;;10.23;45.90;98577.52;1730551;81;20321;-72
2021/03/14 10:08:37;;;;;;;4.95;1.90;;;;;;;10.37;46.06;98600.36;1713291;82;21571;-72
2021/03/14 10:11:12;;;;;;;4.87;1.72;;;;;;;10.38;45.84;98600.68;1703015;83;21202;-73
2021/03/14 10:13:40;;;;;;;5.17;1.90;;;;;;;10.41;46.11;98607.41;1708718;82;21252;-73
2021/03/14 10:16:14;;;;;;;5.60;2.12;;;;;;;10.58;45.94;98582.81;1714471;82;21640;-73
2021/03/14 10:18:40;;;;;;;3.65;1.67;;;;;;;10.62;46.01;98568.22;1712290;82;21266;-74
2021/03/14 10:21:25;;;;;;;7.15;2.22;;;;;;;10.80;45.58;98591.48;1708552;82;21388;-73
2021/03/14 10:23:51;;;;;;;5.37;2.17;;;;;;;11.06;45.90;98590.77;1699754;83;21238;-73
2021/03/14 10:26:17;;;;;;;5.67;1.85;;;;;;;10.72;46.22;98627.27;1719884;82;25403;-74
2021/03/14 10:28:45;;;;;;;4.33;1.80;;;;;;;10.72;46.24;98593.77;1718860;82;21731;-74
2021/03/14 10:31:11;;;;;;;4.15;1.85;;;;;;;10.68;46.38;98601.77;1722185;82;21157;-73
2021/03/14 10:33:43;;;;;;;5.35;2.10;;;;;;;10.61;46.78;98592.98;1716501;83;21545;-74
2021/03/14 10:36:15;;;;;;;5.58;2.20;;;;;;;10.69;46.99;98600.77;1711355;82;21648;-73
2021/03/14 10:38:47;;;;;;;4.55;2.00;;;;;;;10.60;47.19;98602.73;1723143;81;21225;-73
2021/03/14 10:41:22;;;;;;;4.97;2.33;;;;;;;10.41;47.88;98604.25;1725385;82;21182;-74
2021/03/14 10:44:00;;;;;;;5.42;2.30;;;;;;;10.32;48.46;98620.41;1688136;82;21458;-73
2021/03/14 10:46:46;;;;;;;4.87;2.02;;;;;;;10.38;48.68;98599.36;1690158;82;21202;-73
2021/03/14 10:49:17;;;;;;;7.42;2.12;;;;;;;10.40;48.90;98596.53;1697813;82;21206;-72
2021/03/14 10:51:44;;;;;;;6.20;2.20;;;;;;;10.62;48.21;98602.54;1696646;82;21249;-74
2021/03/14 10:54:13;;;;;;;5.10;2.15;;;;;;;10.51;48.40;98612.33;1784143;79;21217;-72
2021/03/14 10:56:42;;;;;;;5.85;2.00;;;;;;;10.42;48.11;98612.97;1787372;79;21172;-74
2021/03/14 10:59:30;;;;;;;5.60;2.12;;;;;;;10.29;48.26;98618.95;1781876;79;21455;-73
2021/03/14 11:02:14;;;;;;;4.92;2.20;;;;;;;10.27;48.22;98614.87;1787333;78;21041;-72
2021/03/14 11:04:40;;;;;;;4.85;2.30;;;;;;;10.30;48.50;98627.67;1782341;79;21473;-73
2021/03/14 11:07:29;;;;;;;5.50;2.12;;;;;;;10.19;48.91;98638.25;1783186;78;20922;-76
2021/03/14 11:10:15;;;;;;;5.37;2.25;;;;;;;9.95;49.22;98640.28;1786967;78;21164;-73
2021/03/14 11:12:47;;;;;;;4.70;2.27;;;;;;;10.03;49.61;98649.38;1790221;78;21152;-72
2021/03/14 11:15:35;;;;;;;5.53;2.00;;;;;;;10.14;48.81;98651.20;1783790;79;21423;-74
2021/03/14 11:18:04;;;;;;;4.45;2.27;;;;;;;10.04;48.97;98644.42;1788115;78;21211;-73
2021/03/14 11:20:30;;;;;;;5.92;2.80;;;;;;;10.04;48.97;98680.03;1783115;79;21249;-74
2021/03/14 11:22:57;;;;;;;5.42;2.42;;;;;;;9.90;49.33;98665.09;1782737;79;20914;-76
2021/03/14 11:25:24;;;;;;;6.37;2.20;;;;;;;10.06;49.25;98642.41;1785235;79;21602;-73
2021/03/14 11:27:51;;;;;;;7.17;2.45;;;;;;;9.96;49.54;98649.84;1788021;79;21219;-73
2021/03/14 11:30:20;;;;;;;;;;;;;;;10.06;49.41;98640.28;1790979;78;21213;-74
2021/03/14 11:32:45;;;;;;;10.58;3.92;;;;;;;9.99;49.56;98700.89;1783068;79;20344;-75
2021/03/14 11:35:12;;;;;;;15.68;6.65;;;;;;;10.09;49.49;98674.70;1784953;79;21006;-75
2021/03/14 11:37:37;;;;;;;10.93;4.80;;;;;;;10.29;49.63;98643.22;1786701;79;22495;-76
2021/03/14 11:40:08;;;;;;;9.65;3.50;;;;;;;10.45;49.33;98646.09;1791108;78;26820;-76
2021/03/14 11:42:35;;;;;;;5.17;2.37;;;;;;;10.69;48.81;98667.25;1786394;79;21247;-74
2021/03/14 11:45:02;;;;;;;5.45;2.33;;;;;;;10.41;49.09;98682.10;1785876;78;21203;-75
2021/03/14 11:47:27;;;;;;;6.78;2.70;;;;;;;10.21;49.58;98657.36;1783371;79;21193;-72
2021/03/14 11:49:53;;;;;;;5.35;2.50;;;;;;;10.21;49.58;98657.36;1784686;79;21612;-73
2021/03/14 11:52:19;;;;;;;5.55;2.80;;;;;;;10.08;50.46;98719.22;1785321;78;26849;-73